Green Bay, WI

11:12 PM CST on January 19, 2017 (GMT -0600)
Titletown | | Change Station
Active Advisory: Dense Fog Advisory

Elev 715 ft 44.51 °N, 88.11 °W | Updated 14 seconds ago

Overcast
Overcast
32.9 °F
Feels Like 33 °F
N
0.0
Wind Variable Wind from ENE
Gusts 0.0 mph

Today
High -- | Low -- °F
--% Chance of Precip.
Yesterday
High -- | Low -- °F
Precip. -- in
Pressure 29.83 in
Visibility 2.0 miles
Clouds Overcast 300 ft
Windchill 33 °F
Dew Point 33 °F
Humidity 99%
Rainfall 0.00 in
Snow Depth Not available.
7:22 AM 4:44 PM
Waning Gibbous, 47% visible
METAR KGRB 200453Z 07004KT 2SM BR OVC003 01/01 A2981 RMK AO2 SLP101 T00110011
Pressure 29.83 in
Visibility 2.0 miles
Clouds Overcast 300 ft
Windchill 33 °F
Dew Point 33 °F
Humidity 99%
Rainfall 0.00 in
Snow Depth Not available.
7:22 AM 4:44 PM
Waning Gibbous, 47% visible
METAR KGRB 200453Z 07004KT 2SM BR OVC003 01/01 A2981 RMK AO2 SLP101 T00110011

Get Your Daily Forecast Email!

Thanks for signing up!

Be on the lookout for a verification email in your inbox.

You'll start receiving the daily forecast at 8 AM.

×

10-Day Weather Forecast

Almanac

Astronomy

Jan. 19, 2017 Rise Set
Actual Time
Civil Twilight
Nautical Twilight
Astronomical Twilight
Moon
Length of Visible Light
Length of Day
Tomorrow will be .
, % of the Moon is Illuminated

Today's Extremes

State Highs State Lows

Community

WunderPhotos

Upload Photos

1,962,540 photos uploaded!

WunderBlog® & News

Nearby

Air Quality

  Air Quality AQ Index Pollutant
Not available.

Snow Depth

Station Depth Elevation

Earthquake Activity

City Distance Mag. Time & Date
Minimum magnitude displayed is 2.5.

Coastal Water Temperatures

Place Temperature

Stations

Nearby Weather Stations

Station Location Temp. Windchill Dew Point Humidity Wind Precip. Elev Updated Type
                   

Watches & Warnings

Dense Fog Advisory
Issued: 9:39 PM CST Jan. 19, 2017 – National Weather Service

... Dense fog advisory remains in effect until 9 am CST Friday...

* visibility... less than 500 feet in some places.

* Impacts... reduced visibilities and wet or slick roads will
make travel hazardous. Airline flights may be delayed or
cancelled.

Precautionary/preparedness actions...

A dense fog advisory means visibilities will frequently be
reduced to less than one quarter mile. If driving... slow down...
use your headlights... and leave plenty of distance ahead of you.